Time;durP1;ratioP1;P1;durP2;ratioP2;P2;SDS_P1;SDS_P2;PMS_P1;PMS_P2;Temp;Humidity;BMP_temperature;BMP_pressure;BME280_temperature;BME280_humidity;BME280_pressure;Samples;Min_cycle;Max_cycle;Signal;HPM_P1;HPM_P2
2022/11/27 00:01:13;;;;;;;55.65;14.43;;;5.30;83.30;;;;;;5122643;27;20294;-72
2022/11/27 00:03:42;;;;;;;62.90;13.77;;;5.30;83.20;;;;;;5123291;27;20225;-68
2022/11/27 00:06:14;;;;;;;58.95;14.63;;;5.30;83.30;;;;;;5122120;27;20202;-69
2022/11/27 00:08:43;;;;;;;59.30;17.38;;;5.30;83.50;;;;;;5124162;27;20706;-69
2022/11/27 00:11:14;;;;;;;45.97;16.50;;;5.30;83.60;;;;;;5121250;27;20209;-70
2022/11/27 00:13:42;;;;;;;61.92;14.55;;;5.30;83.50;;;;;;5122176;27;20209;-72
2022/11/27 00:16:10;;;;;;;60.38;18.25;;;5.30;83.30;;;;;;5123687;27;20258;-71
2022/11/27 00:18:40;;;;;;;51.95;17.20;;;5.30;83.30;;;;;;5124690;27;20202;-71
2022/11/27 00:21:12;;;;;;;55.80;16.20;;;5.20;83.40;;;;;;5122916;27;20221;-71
2022/11/27 00:23:40;;;;;;;40.63;15.13;;;5.20;83.40;;;;;;5121338;27;20238;-72
2022/11/27 00:26:08;;;;;;;57.60;15.75;;;5.30;83.50;;;;;;5126846;27;20202;-72
2022/11/27 00:28:43;;;;;;;42.95;14.93;;;5.30;83.50;;;;;;5126228;27;20239;-70
2022/11/27 00:31:14;;;;;;;75.18;16.75;;;5.30;83.30;;;;;;5125068;27;20967;-72
2022/11/27 00:33:43;;;;;;;35.90;12.27;;;5.20;83.30;;;;;;5120503;27;20259;-71
2022/11/27 00:36:12;;;;;;;50.88;12.68;;;5.20;83.40;;;;;;5121649;27;20308;-70
2022/11/27 00:38:40;;;;;;;53.28;13.20;;;5.20;83.20;;;;;;5124306;27;20210;-70
2022/11/27 00:41:10;;;;;;;51.25;11.95;;;5.20;83.20;;;;;;5119994;27;20210;-72
2022/11/27 00:43:38;;;;;;;29.23;12.25;;;5.20;83.20;;;;;;5123577;27;20201;-70
2022/11/27 00:46:12;;;;;;;34.10;9.95;;;5.10;83.30;;;;;;5123702;27;20904;-71
2022/11/27 00:48:40;;;;;;;59.83;11.30;;;5.10;83.20;;;;;;5124388;27;20216;-71
2022/11/27 00:51:12;;;;;;;51.28;12.80;;;5.10;83.20;;;;;;5125490;27;20233;-71
2022/11/27 00:53:41;;;;;;;46.40;11.23;;;5.10;83.20;;;;;;5125185;27;20213;-72
2022/11/27 00:56:10;;;;;;;37.60;11.40;;;5.10;83.20;;;;;;5124072;27;20202;-71
2022/11/27 00:58:38;;;;;;;53.53;12.95;;;5.10;83.30;;;;;;5124422;27;20235;-72
2022/11/27 01:01:07;;;;;;;62.38;13.10;;;5.10;83.30;;;;;;5125162;27;20245;-71
2022/11/27 01:03:35;;;;;;;48.30;13.20;;;5.10;83.20;;;;;;5125638;27;20546;-72
2022/11/27 01:06:05;;;;;;;34.30;11.52;;;5.10;83.20;;;;;;5120453;27;20239;-72
2022/11/27 01:08:35;;;;;;;21.98;11.20;;;5.10;83.10;;;;;;5125648;27;20738;-72
2022/11/27 01:11:03;;;;;;;47.58;11.35;;;5.10;83.10;;;;;;5125726;27;20225;-70
2022/11/27 01:13:33;;;;;;;87.53;11.18;;;5.10;83.10;;;;;;5123968;27;20210;-71
2022/11/27 01:16:04;;;;;;;75.95;11.20;;;5.00;83.00;;;;;;5125125;28;20198;-72
2022/11/27 01:18:33;;;;;;;59.10;10.38;;;5.00;82.90;;;;;;5121398;28;20209;-72
2022/11/27 01:21:01;;;;;;;81.45;13.10;;;4.90;82.90;;;;;;5123919;27;20233;-71
2022/11/27 01:23:30;;;;;;;175.00;16.60;;;4.90;83.00;;;;;;5123929;28;20218;-71
2022/11/27 01:26:00;;;;;;;84.38;14.52;;;4.90;82.80;;;;;;5124173;28;20597;-72
2022/11/27 01:28:28;;;;;;;64.38;12.07;;;4.80;82.80;;;;;;5123390;28;20210;-72
2022/11/27 01:30:56;;;;;;;51.78;12.68;;;4.80;82.90;;;;;;5124953;27;20221;-72
2022/11/27 01:33:24;;;;;;;24.92;11.75;;;4.80;83.00;;;;;;5123410;28;20864;-72
2022/11/27 01:35:55;;;;;;;23.92;10.65;;;4.80;83.10;;;;;;5123562;28;20202;-72
2022/11/27 01:38:23;;;;;;;48.03;11.32;;;4.80;83.10;;;;;;5125691;28;20221;-72
2022/11/27 01:40:57;;;;;;;51.75;11.25;;;4.90;83.10;;;;;;5126713;27;20304;-71
2022/11/27 01:43:44;;;;;;;133.48;16.65;;;4.90;83.10;;;;;;5127311;27;20198;-72
2022/11/27 01:46:35;;;;;;;18.40;10.35;;;4.90;83.00;;;;;;5125499;27;20232;-72
2022/11/27 01:49:24;;;;;;;87.82;11.68;;;4.80;82.90;;;;;;5122512;27;20689;-71
2022/11/27 01:51:56;;;;;;;98.95;11.73;;;4.80;83.00;;;;;;5125527;27;20222;-71
2022/11/27 01:54:28;;;;;;;64.93;11.32;;;4.80;82.90;;;;;;5124559;27;20199;-72
2022/11/27 01:57:00;;;;;;;127.95;13.07;;;4.80;82.90;;;;;;5127228;27;20509;-71
2022/11/27 01:59:30;;;;;;;156.68;15.75;;;4.80;82.80;;;;;;5128114;27;20209;-72
2022/11/27 02:01:57;;;;;;;42.92;11.38;;;4.70;82.70;;;;;;5120881;27;20298;-72
2022/11/27 02:04:26;;;;;;;51.88;12.05;;;4.70;82.80;;;;;;5126889;27;20234;-71
2022/11/27 02:06:57;;;;;;;60.28;11.40;;;4.70;82.90;;;;;;5126980;27;20201;-69
2022/11/27 02:09:25;;;;;;;171.88;16.08;;;4.70;82.80;;;;;;5128174;27;20289;-71
2022/11/27 02:11:58;;;;;;;64.75;13.35;;;4.70;82.70;;;;;;5128833;27;20306;-70
2022/11/27 02:14:32;;;;;;;62.53;13.35;;;4.60;82.80;;;;;;5128157;27;20654;-72
2022/11/27 02:17:07;;;;;;;98.30;13.90;;;4.60;82.90;;;;;;5132306;27;20672;-72
2022/11/27 02:19:55;;;;;;;125.78;15.88;;;4.60;82.90;;;;;;5123675;27;20201;-72
2022/11/27 02:22:43;;;;;;;61.97;11.60;;;4.60;82.90;;;;;;5127584;27;20278;-71
2022/11/27 02:25:20;;;;;;;53.47;10.85;;;4.50;82.80;;;;;;5127824;27;20243;-70
2022/11/27 02:28:11;;;;;;;92.22;14.43;;;4.50;83.00;;;;;;5128596;27;20216;-71
2022/11/27 02:30:46;;;;;;;137.57;12.13;;;4.50;83.00;;;;;;5125118;27;20267;-71
2022/11/27 02:33:19;;;;;;;70.57;11.38;;;4.50;82.80;;;;;;5117893;27;21085;-72
2022/11/27 02:35:52;;;;;;;42.47;10.00;;;4.50;82.80;;;;;;5128426;27;20190;-71
2022/11/27 02:38:26;;;;;;;84.95;9.93;;;4.50;82.80;;;;;;5127065;27;20267;-71
2022/11/27 02:40:56;;;;;;;51.58;9.90;;;4.40;82.90;;;;;;5128355;27;20226;-72
2022/11/27 02:43:30;;;;;;;133.18;14.52;;;4.40;82.80;;;;;;5126256;27;20201;-71
2022/11/27 02:46:00;;;;;;;91.57;11.07;;;4.40;82.80;;;;;;5126160;27;20246;-72
2022/11/27 02:48:34;;;;;;;18.90;9.00;;;4.40;82.80;;;;;;5126380;27;20219;-70
2022/11/27 02:51:03;;;;;;;17.27;8.77;;;4.40;82.90;;;;;;5128179;27;20225;-72
2022/11/27 02:53:37;;;;;;;88.00;11.05;;;4.40;83.10;;;;;;5127637;27;20206;-72
2022/11/27 02:56:08;;;;;;;141.15;16.48;;;4.40;83.10;;;;;;5128943;27;20194;-71
2022/11/27 02:58:38;;;;;;;17.05;8.77;;;4.50;83.10;;;;;;5128017;27;20251;-72
2022/11/27 03:01:09;;;;;;;18.33;9.40;;;4.50;83.00;;;;;;5127113;27;20224;-72
2022/11/27 03:03:41;;;;;;;64.57;10.52;;;4.50;83.00;;;;;;5128900;27;20655;-71
2022/11/27 03:06:11;;;;;;;38.17;9.75;;;4.50;83.00;;;;;;5127816;27;20232;-70
2022/11/27 03:08:46;;;;;;;57.10;10.85;;;4.50;83.00;;;;;;5126090;27;20194;-70
2022/11/27 03:11:15;;;;;;;100.45;11.30;;;4.50;82.90;;;;;;5127051;27;20217;-70
2022/11/27 03:13:50;;;;;;;37.40;9.65;;;4.50;82.90;;;;;;5126698;27;20211;-70
2022/11/27 03:16:28;;;;;;;56.25;11.43;;;4.50;82.90;;;;;;5129566;27;20257;-70
2022/11/27 03:19:08;;;;;;;136.25;15.02;;;4.50;83.00;;;;;;5125877;27;20264;-70
2022/11/27 03:21:40;;;;;;;52.65;10.82;;;4.50;82.90;;;;;;5128008;27;20714;-70
2022/11/27 03:24:09;;;;;;;200.30;17.50;;;4.50;82.90;;;;;;5124624;27;20232;-70
2022/11/27 03:26:39;;;;;;;124.05;13.60;;;4.50;82.80;;;;;;5125453;27;20236;-69
2022/11/27 03:29:12;;;;;;;87.70;12.52;;;4.40;82.60;;;;;;5128888;27;20198;-70
2022/11/27 03:31:41;;;;;;;65.28;10.15;;;4.40;82.60;;;;;;5128502;27;20226;-70
2022/11/27 03:34:15;;;;;;;21.45;10.60;;;4.40;82.70;;;;;;5127208;27;20621;-72
2022/11/27 03:36:43;;;;;;;26.73;9.38;;;4.40;82.80;;;;;;5132863;27;20206;-71
2022/11/27 03:39:11;;;;;;;89.07;12.82;;;4.40;82.90;;;;;;5135151;27;20202;-71
2022/11/27 03:41:45;;;;;;;17.48;9.23;;;4.40;82.80;;;;;;5134453;27;20229;-69
2022/11/27 03:44:24;;;;;;;60.38;9.90;;;4.40;82.70;;;;;;5135413;27;20197;-72
2022/11/27 03:47:05;;;;;;;83.43;10.32;;;4.40;82.90;;;;;;5133754;27;20206;-73
2022/11/27 03:49:43;;;;;;;27.48;9.70;;;4.40;82.90;;;;;;5136856;27;20844;-71
2022/11/27 03:52:21;;;;;;;38.72;10.70;;;4.40;82.80;;;;;;5135342;27;20229;-73
2022/11/27 03:54:58;;;;;;;124.28;14.00;;;4.40;82.90;;;;;;5131430;27;20206;-72
2022/11/27 03:57:33;;;;;;;51.30;10.70;;;4.40;82.80;;;;;;5132744;27;20193;-70
2022/11/27 04:00:04;;;;;;;25.67;10.27;;;4.40;82.70;;;;;;5133591;27;20214;-71
2022/11/27 04:02:41;;;;;;;23.98;10.43;;;4.30;82.80;;;;;;5135266;27;20324;-70
2022/11/27 04:05:12;;;;;;;33.35;10.38;;;4.30;82.80;;;;;;5134945;27;20276;-72
2022/11/27 04:07:40;;;;;;;28.13;10.07;;;4.30;82.90;;;;;;5132889;27;20225;-71
2022/11/27 04:10:10;;;;;;;27.90;10.88;;;4.40;83.00;;;;;;5135635;27;20208;-71
2022/11/27 04:12:38;;;;;;;23.20;10.43;;;4.40;83.00;;;;;;5134218;27;20254;-71
2022/11/27 04:15:07;;;;;;;19.55;8.93;;;4.40;82.90;;;;;;5133472;27;20194;-71
2022/11/27 04:17:35;;;;;;;29.73;9.95;;;4.40;82.90;;;;;;5128045;27;20198;-71
2022/11/27 04:20:06;;;;;;;26.33;9.80;;;4.40;82.80;;;;;;5129367;27;20206;-71
2022/11/27 04:22:34;;;;;;;21.15;10.27;;;4.40;82.80;;;;;;5129403;27;20635;-71
2022/11/27 04:25:02;;;;;;;52.45;11.00;;;4.40;82.90;;;;;;5128167;27;20210;-71
2022/11/27 04:27:30;;;;;;;21.52;10.15;;;4.40;82.90;;;;;;5128222;27;20726;-71
2022/11/27 04:29:58;;;;;;;39.38;10.70;;;4.40;82.90;;;;;;5126179;27;20209;-71
2022/11/27 04:32:26;;;;;;;22.92;8.93;;;4.40;82.80;;;;;;5126679;27;20636;-71
2022/11/27 04:34:54;;;;;;;27.60;10.43;;;4.40;82.80;;;;;;5125996;27;20256;-71
2022/11/27 04:37:38;;;;;;;19.75;10.27;;;4.40;82.80;;;;;;5128097;27;20255;-72
2022/11/27 04:40:07;;;;;;;62.58;11.20;;;4.40;82.90;;;;;;5103721;27;20202;-71
2022/11/27 04:42:35;;;;;;;62.63;11.40;;;4.40;82.80;;;;;;5123065;27;20683;-70
2022/11/27 04:45:04;;;;;;;104.55;13.65;;;4.40;82.70;;;;;;5125946;27;20950;-71
2022/11/27 04:47:32;;;;;;;113.78;11.55;;;4.40;82.60;;;;;;5124870;27;20222;-70
2022/11/27 04:50:00;;;;;;;68.32;12.00;;;4.30;82.50;;;;;;5124184;27;20220;-72
2022/11/27 04:52:28;;;;;;;86.50;12.35;;;4.30;82.50;;;;;;5122970;27;20286;-71
2022/11/27 04:54:58;;;;;;;133.43;13.57;;;4.20;82.40;;;;;;5124177;27;20214;-71
2022/11/27 04:57:27;;;;;;;47.50;10.95;;;4.20;82.40;;;;;;5125123;27;20198;-70
2022/11/27 04:59:55;;;;;;;86.55;11.90;;;4.10;82.20;;;;;;5124778;27;20266;-70
2022/11/27 05:02:23;;;;;;;64.53;11.73;;;4.00;82.30;;;;;;5123011;27;20230;-71
2022/11/27 05:04:51;;;;;;;36.53;11.52;;;4.00;82.30;;;;;;5124139;27;20634;-72
2022/11/27 05:07:19;;;;;;;71.53;11.65;;;4.00;82.40;;;;;;5121748;27;20275;-70
2022/11/27 05:09:47;;;;;;;43.75;11.15;;;4.00;82.30;;;;;;5124821;27;20197;-70
2022/11/27 05:12:17;;;;;;;60.90;13.20;;;3.90;82.50;;;;;;5122394;28;20221;-70
2022/11/27 05:14:45;;;;;;;27.80;11.40;;;3.90;82.60;;;;;;5121141;27;20656;-70
2022/11/27 05:17:13;;;;;;;35.72;12.77;;;3.90;82.60;;;;;;5125679;28;20612;-72
2022/11/27 05:19:41;;;;;;;52.08;13.70;;;4.00;82.50;;;;;;5123431;27;20217;-69
2022/11/27 05:22:09;;;;;;;49.92;14.13;;;3.90;82.40;;;;;;5126021;27;20649;-69
2022/11/27 05:24:37;;;;;;;61.90;16.88;;;3.80;82.00;;;;;;5125635;27;20227;-69
2022/11/27 05:27:06;;;;;;;49.45;15.73;;;3.70;82.00;;;;;;5125118;28;20259;-70
2022/11/27 05:29:35;;;;;;;79.95;15.15;;;3.60;81.90;;;;;;5122656;28;20309;-70
2022/11/27 05:32:04;;;;;;;61.88;15.38;;;3.50;81.90;;;;;;5124803;27;20222;-70
2022/11/27 05:34:32;;;;;;;32.03;15.40;;;3.40;82.20;;;;;;5125592;28;20202;-70
2022/11/27 05:37:00;;;;;;;39.67;15.05;;;3.30;82.20;;;;;;5124840;28;20221;-69
2022/11/27 05:39:28;;;;;;;32.47;14.75;;;3.30;82.50;;;;;;5122664;28;20210;-70
2022/11/27 05:41:56;;;;;;;35.05;15.52;;;3.30;82.60;;;;;;5123650;27;20218;-72
2022/11/27 05:44:24;;;;;;;33.53;14.88;;;3.40;82.80;;;;;;5122904;27;20206;-70
2022/11/27 05:46:54;;;;;;;27.92;13.82;;;3.40;82.80;;;;;;5123224;28;20274;-71
2022/11/27 05:49:22;;;;;;;23.17;13.48;;;3.40;82.60;;;;;;5124940;28;20198;-71
2022/11/27 05:51:49;;;;;;;33.30;14.52;;;3.40;82.80;;;;;;5125285;27;20214;-70
2022/11/27 05:54:19;;;;;;;29.38;15.38;;;3.40;82.80;;;;;;5126826;28;20194;-70
2022/11/27 05:56:47;;;;;;;28.30;15.32;;;3.40;82.60;;;;;;5122703;28;20298;-70
2022/11/27 05:59:15;;;;;;;32.05;14.45;;;3.40;82.50;;;;;;5124152;27;20221;-70
2022/11/27 06:01:43;;;;;;;31.05;13.88;;;3.40;82.80;;;;;;5123433;27;20218;-71
2022/11/27 06:04:12;;;;;;;26.65;14.70;;;3.50;82.90;;;;;;5122588;27;20250;-71
2022/11/27 06:06:40;;;;;;;21.38;12.40;;;3.50;82.80;;;;;;5123933;27;20202;-70
2022/11/27 06:09:08;;;;;;;25.45;13.80;;;3.50;83.00;;;;;;5124402;28;20221;-69
2022/11/27 06:11:40;;;;;;;41.53;14.30;;;3.60;82.90;;;;;;5124970;27;20226;-70
2022/11/27 06:14:09;;;;;;;27.67;13.43;;;3.60;82.80;;;;;;5121815;27;20209;-70
2022/11/27 06:16:37;;;;;;;38.53;15.07;;;3.60;82.70;;;;;;5124149;27;20838;-70
2022/11/27 06:19:07;;;;;;;86.97;16.60;;;3.60;82.70;;;;;;5125356;28;20586;-70
2022/11/27 06:21:37;;;;;;;102.35;16.80;;;3.60;82.70;;;;;;5124913;27;20658;-70
2022/11/27 06:24:05;;;;;;;51.40;15.30;;;3.60;82.60;;;;;;5122198;28;20210;-69
2022/11/27 06:26:33;;;;;;;45.80;15.75;;;3.60;82.50;;;;;;5121986;27;20202;-70
2022/11/27 06:29:02;;;;;;;29.83;14.95;;;3.60;82.40;;;;;;5126563;27;20305;-69
2022/11/27 06:31:31;;;;;;;34.78;15.00;;;3.60;82.20;;;;;;5127835;27;20234;-71
2022/11/27 06:34:01;;;;;;;24.83;14.43;;;3.50;82.30;;;;;;5127734;27;20679;-71
2022/11/27 06:36:31;;;;;;;28.40;16.70;;;3.50;82.50;;;;;;5129729;27;20197;-72
2022/11/27 06:39:01;;;;;;;24.20;14.30;;;3.60;82.70;;;;;;5127914;27;20198;-70
2022/11/27 06:41:29;;;;;;;43.67;15.40;;;3.60;82.70;;;;;;5123906;27;20234;-73
2022/11/27 06:43:59;;;;;;;30.23;15.18;;;3.60;82.60;;;;;;5126647;27;20214;-71
2022/11/27 06:46:28;;;;;;;59.75;16.50;;;3.70;82.60;;;;;;5126583;27;20221;-70
2022/11/27 06:48:58;;;;;;;24.58;14.10;;;3.70;82.50;;;;;;5125852;27;20218;-71
2022/11/27 06:51:27;;;;;;;28.40;13.68;;;3.70;82.60;;;;;;5129313;27;20241;-71
2022/11/27 06:53:56;;;;;;;29.23;14.55;;;3.70;82.60;;;;;;5126135;27;20661;-72
2022/11/27 06:56:27;;;;;;;30.80;14.20;;;3.70;82.60;;;;;;5126906;27;20683;-71
2022/11/27 06:58:56;;;;;;;24.10;14.27;;;3.80;82.60;;;;;;5124980;27;20209;-72
2022/11/27 07:01:26;;;;;;;26.80;14.55;;;3.80;82.60;;;;;;5126941;27;20255;-72
2022/11/27 07:03:56;;;;;;;24.33;15.00;;;3.80;82.60;;;;;;5126361;27;20739;-71
2022/11/27 07:06:26;;;;;;;25.67;14.65;;;3.80;82.60;;;;;;5126885;27;20194;-72
2022/11/27 07:08:55;;;;;;;31.40;14.25;;;3.80;82.50;;;;;;5126849;27;20743;-71
2022/11/27 07:11:26;;;;;;;30.92;14.50;;;3.90;82.50;;;;;;5125673;27;20629;-71
2022/11/27 07:13:56;;;;;;;30.13;14.20;;;3.90;82.40;;;;;;5124906;27;20206;-72
2022/11/27 07:16:24;;;;;;;28.67;13.25;;;3.80;82.30;;;;;;5127761;27;20204;-70
2022/11/27 07:18:55;;;;;;;101.65;19.50;;;3.80;82.30;;;;;;5127744;27;20198;-70
2022/11/27 07:21:23;;;;;;;33.05;14.07;;;3.80;82.30;;;;;;5125014;27;20228;-70
2022/11/27 07:23:52;;;;;;;26.33;14.57;;;3.80;82.30;;;;;;5129685;27;20613;-71
2022/11/27 07:26:21;;;;;;;26.40;15.38;;;3.80;82.30;;;;;;5126803;27;20202;-71
2022/11/27 07:28:51;;;;;;;27.33;15.32;;;3.80;82.30;;;;;;5125214;27;20259;-70
2022/11/27 07:31:20;;;;;;;28.48;13.95;;;3.80;82.50;;;;;;5127926;27;20612;-70
2022/11/27 07:33:51;;;;;;;25.23;14.48;;;3.90;82.40;;;;;;5128350;27;20214;-70
2022/11/27 07:36:20;;;;;;;76.80;17.55;;;3.90;82.40;;;;;;5128189;27;20198;-71
2022/11/27 07:38:49;;;;;;;68.82;18.77;;;3.90;82.30;;;;;;5127799;27;20724;-69
2022/11/27 07:41:17;;;;;;;54.35;19.13;;;3.90;82.10;;;;;;5125676;27;20222;-69
2022/11/27 07:43:46;;;;;;;70.05;24.17;;;3.80;82.10;;;;;;5123994;27;20250;-71
2022/11/27 07:46:17;;;;;;;121.80;35.55;;;3.80;82.10;;;;;;5123906;27;20232;-69
2022/11/27 07:48:45;;;;;;;74.20;32.22;;;3.80;82.10;;;;;;5125167;27;20304;-72
2022/11/27 07:51:15;;;;;;;104.93;41.78;;;3.80;82.10;;;;;;5125281;27;20960;-71
2022/11/27 07:53:43;;;;;;;85.70;34.33;;;3.80;82.20;;;;;;5125685;27;20193;-70
2022/11/27 07:56:13;;;;;;;53.20;25.48;;;3.80;82.20;;;;;;5124819;27;20205;-70
2022/11/27 07:58:41;;;;;;;96.57;22.65;;;3.80;82.30;;;;;;5123538;27;20194;-70
2022/11/27 08:01:11;;;;;;;141.20;30.33;;;3.80;82.20;;;;;;5121534;27;20278;-71
2022/11/27 08:03:42;;;;;;;126.95;30.83;;;3.80;82.20;;;;;;5127090;27;20225;-70
2022/11/27 08:06:15;;;;;;;167.30;20.67;;;3.80;82.00;;;;;;5126288;27;20214;-71
2022/11/27 08:08:43;;;;;;;105.50;34.53;;;3.70;82.00;;;;;;5122873;27;20778;-71
2022/11/27 08:11:16;;;;;;;133.27;30.92;;;3.70;82.10;;;;;;5122455;27;20259;-71
2022/11/27 08:13:44;;;;;;;101.38;21.13;;;3.70;82.00;;;;;;5111657;27;20220;-71
2022/11/27 08:16:12;;;;;;;62.72;21.90;;;3.60;81.90;;;;;;5126190;27;20210;-71
2022/11/27 08:18:42;;;;;;;80.53;25.20;;;3.60;81.80;;;;;;5125305;27;20217;-71
2022/11/27 08:21:10;;;;;;;70.57;22.13;;;3.50;82.10;;;;;;5125854;27;22217;-69
2022/11/27 08:23:41;;;;;;;121.45;33.88;;;3.50;82.30;;;;;;5123865;27;20283;-71
2022/11/27 08:26:12;;;;;;;120.05;31.85;;;3.60;82.40;;;;;;5140241;27;20202;-71
2022/11/27 08:28:42;;;;;;;120.65;25.30;;;3.60;82.40;;;;;;5129401;27;20685;-69
2022/11/27 08:31:12;;;;;;;87.10;23.88;;;3.60;82.40;;;;;;5127237;27;20252;-72
2022/11/27 08:33:42;;;;;;;76.10;25.60;;;3.60;82.40;;;;;;5121351;27;20675;-71
2022/11/27 08:36:10;;;;;;;102.07;33.72;;;3.60;82.30;;;;;;5126034;27;20763;-71
2022/11/27 08:38:45;;;;;;;83.30;35.70;;;3.60;82.50;;;;;;5126474;27;20661;-70
2022/11/27 08:41:13;;;;;;;103.50;38.45;;;3.60;82.40;;;;;;5123745;27;20217;-70
2022/11/27 08:43:41;;;;;;;75.15;32.90;;;3.60;82.40;;;;;;5123772;27;20213;-71
2022/11/27 08:46:09;;;;;;;60.22;27.10;;;3.60;82.50;;;;;;5124387;27;20204;-68
2022/11/27 08:48:37;;;;;;;72.03;27.10;;;3.60;82.50;;;;;;5125615;27;20221;-70
2022/11/27 08:51:09;;;;;;;57.95;27.95;;;3.60;82.60;;;;;;5123581;27;20729;-70
2022/11/27 08:53:37;;;;;;;49.78;24.58;;;3.70;82.90;;;;;;5122560;27;20240;-69
2022/11/27 08:56:07;;;;;;;82.35;29.08;;;3.70;82.90;;;;;;5122122;27;20222;-69
2022/11/27 08:58:35;;;;;;;78.72;27.17;;;3.80;82.90;;;;;;5122421;27;20227;-72
2022/11/27 09:01:08;;;;;;;53.33;26.60;;;3.80;82.90;;;;;;5123256;27;20646;-71
2022/11/27 09:03:36;;;;;;;82.45;28.02;;;3.70;82.60;;;;;;5119114;27;20210;-69
2022/11/27 09:06:08;;;;;;;79.90;25.42;;;3.70;82.80;;;;;;5123153;27;20248;-69
2022/11/27 09:08:36;;;;;;;71.10;23.55;;;3.70;82.80;;;;;;5122656;27;20263;-69
2022/11/27 09:11:05;;;;;;;64.10;21.33;;;3.70;82.90;;;;;;5123831;27;20271;-69
2022/11/27 09:13:35;;;;;;;58.78;25.55;;;3.70;83.00;;;;;;5120830;27;20703;-69
2022/11/27 09:16:03;;;;;;;72.95;26.83;;;3.70;83.00;;;;;;5121623;28;20194;-71
2022/11/27 09:18:31;;;;;;;67.50;26.90;;;3.70;83.30;;;;;;5123290;27;20202;-70
2022/11/27 09:21:01;;;;;;;65.10;29.75;;;3.80;83.40;;;;;;5121255;27;20235;-70
2022/11/27 09:23:31;;;;;;;50.88;24.92;;;3.90;83.40;;;;;;5119072;27;20262;-70
2022/11/27 09:26:00;;;;;;;74.25;23.75;;;4.00;83.60;;;;;;5125775;28;20209;-70
2022/11/27 09:28:28;;;;;;;80.72;27.10;;;4.10;83.70;;;;;;5125702;27;20213;-70
2022/11/27 09:30:59;;;;;;;61.83;26.95;;;4.10;83.50;;;;;;5124517;27;20580;-70
2022/11/27 09:33:31;;;;;;;69.28;27.63;;;4.20;83.50;;;;;;5125815;28;20350;-71
2022/11/27 09:36:03;;;;;;;68.40;28.63;;;4.20;83.30;;;;;;5124455;27;20679;-71
2022/11/27 09:38:33;;;;;;;58.20;23.75;;;4.20;83.40;;;;;;5115445;27;20210;-70
2022/11/27 09:41:06;;;;;;;72.70;25.13;;;4.20;83.40;;;;;;5124279;27;20651;-72
2022/11/27 09:43:43;;;;;;;59.47;22.92;;;4.30;83.50;;;;;;5125058;27;20201;-72
2022/11/27 09:46:21;;;;;;;71.70;28.80;;;4.30;83.60;;;;;;5120892;28;20675;-71
2022/11/27 09:48:51;;;;;;;61.05;27.17;;;4.30;83.50;;;;;;5122731;28;20559;-69
2022/11/27 09:51:27;;;;;;;76.18;30.48;;;4.30;83.30;;;;;;5125781;27;20267;-69
2022/11/27 09:54:03;;;;;;;78.72;30.67;;;4.30;83.50;;;;;;5124230;28;20206;-70
2022/11/27 09:56:35;;;;;;;54.42;23.40;;;4.30;83.70;;;;;;5124110;27;20263;-69
2022/11/27 09:59:08;;;;;;;65.20;22.98;;;4.30;83.70;;;;;;5123135;28;20197;-71
2022/11/27 10:01:37;;;;;;;65.20;22.92;;;4.40;84.10;;;;;;5121766;27;20666;-70
2022/11/27 10:04:19;;;;;;;48.25;22.70;;;4.40;83.80;;;;;;5125750;27;20208;-70
2022/11/27 10:07:08;;;;;;;59.67;28.77;;;4.40;84.00;;;;;;5126172;27;20213;-70
2022/11/27 10:09:49;;;;;;;56.05;28.80;;;4.50;84.00;;;;;;5127004;27;20222;-70
2022/11/27 10:12:28;;;;;;;46.85;25.15;;;4.50;83.90;;;;;;5126543;27;20226;-70
2022/11/27 10:15:04;;;;;;;43.30;21.80;;;4.50;83.80;;;;;;5126943;27;20213;-70
2022/11/27 10:17:37;;;;;;;51.33;23.25;;;4.50;84.00;;;;;;5127622;27;20206;-70
2022/11/27 10:20:18;;;;;;;62.15;29.63;;;4.50;83.90;;;;;;5129105;27;20202;-69
2022/11/27 10:22:53;;;;;;;42.85;24.20;;;4.50;84.10;;;;;;5121657;27;20201;-70
2022/11/27 10:25:30;;;;;;;42.05;23.58;;;4.40;84.10;;;;;;5127824;27;20246;-70
2022/11/27 10:28:06;;;;;;;46.80;27.23;;;4.50;84.40;;;;;;5123161;27;20198;-70
2022/11/27 10:30:38;;;;;;;45.72;25.00;;;4.50;84.30;;;;;;5128460;27;20742;-71
2022/11/27 10:33:15;;;;;;;55.67;28.23;;;4.50;84.70;;;;;;5127663;27;20213;-71
2022/11/27 10:35:46;;;;;;;46.53;25.17;;;4.50;84.60;;;;;;5127962;27;20194;-71
2022/11/27 10:38:19;;;;;;;48.83;26.05;;;4.50;84.60;;;;;;5126568;27;20251;-71
2022/11/27 10:40:57;;;;;;;45.50;23.55;;;4.60;84.80;;;;;;5124499;27;20794;-70
2022/11/27 10:43:25;;;;;;;48.03;24.25;;;4.70;84.90;;;;;;5126051;27;20201;-71
2022/11/27 10:45:58;;;;;;;42.38;22.55;;;4.70;85.10;;;;;;5128287;27;20210;-70
2022/11/27 10:48:28;;;;;;;33.78;20.40;;;4.80;85.20;;;;;;5124788;27;20568;-70
2022/11/27 10:50:56;;;;;;;40.45;20.50;;;4.90;85.40;;;;;;5124577;27;20233;-70
2022/11/27 10:53:28;;;;;;;38.72;20.52;;;4.90;85.20;;;;;;5122917;27;20202;-70
2022/11/27 10:56:18;;;;;;;41.50;21.67;;;5.00;85.10;;;;;;5124677;27;20745;-71
2022/11/27 10:58:54;;;;;;;40.05;23.25;;;5.00;85.20;;;;;;5123229;27;20198;-71
2022/11/27 11:01:24;;;;;;;38.15;23.33;;;5.10;85.20;;;;;;5126472;27;20860;-70
2022/11/27 11:04:05;;;;;;;34.03;20.70;;;5.10;85.20;;;;;;5123929;27;20236;-70
2022/11/27 11:06:54;;;;;;;38.88;22.63;;;5.20;85.20;;;;;;5126531;27;20255;-70
2022/11/27 11:09:24;;;;;;;40.42;22.27;;;5.20;85.20;;;;;;5127517;27;20215;-70
2022/11/27 11:11:53;;;;;;;35.50;19.20;;;5.20;85.30;;;;;;5126523;27;20221;-70
2022/11/27 11:14:27;;;;;;;36.17;21.73;;;5.30;85.40;;;;;;5123347;27;20240;-71
2022/11/27 11:16:56;;;;;;;32.17;18.90;;;5.40;85.50;;;;;;5130806;27;20690;-70
2022/11/27 11:19:29;;;;;;;33.80;19.65;;;5.40;85.40;;;;;;5128931;27;20201;-70
2022/11/27 11:21:59;;;;;;;32.70;19.60;;;5.40;85.30;;;;;;5121676;27;20275;-70
2022/11/27 11:24:29;;;;;;;40.20;21.70;;;5.40;85.30;;;;;;5131124;27;20202;-70
2022/11/27 11:27:01;;;;;;;42.92;22.40;;;5.40;85.40;;;;;;5127811;27;20259;-69
2022/11/27 11:29:34;;;;;;;36.13;19.33;;;5.50;85.40;;;;;;5124830;27;20245;-69
2022/11/27 11:32:10;;;;;;;39.42;20.67;;;5.50;85.50;;;;;;5125275;27;20247;-69
2022/11/27 11:34:42;;;;;;;37.80;21.00;;;5.50;85.50;;;;;;5123880;27;20202;-71
2022/11/27 11:37:22;;;;;;;37.00;21.50;;;5.50;85.50;;;;;;5122387;27;20267;-71
2022/11/27 11:39:56;;;;;;;42.28;22.13;;;5.50;85.60;;;;;;5125266;27;20193;-70
2022/11/27 11:42:27;;;;;;;38.45;21.38;;;5.60;85.50;;;;;;5125278;27;20225;-71
2022/11/27 11:45:01;;;;;;;43.35;24.60;;;5.60;85.50;;;;;;5122466;27;20291;-70
2022/11/27 11:47:30;;;;;;;38.28;20.95;;;5.60;85.50;;;;;;5121320;27;20234;-70
2022/11/27 11:49:58;;;;;;;40.42;21.67;;;5.60;85.70;;;;;;5119149;27;20223;-70
2022/11/27 11:52:44;;;;;;;33.78;18.77;;;5.60;85.60;;;;;;5121938;27;20232;-72
2022/11/27 11:55:18;;;;;;;40.58;21.80;;;5.60;85.70;;;;;;5122365;27;20294;-70
2022/11/27 11:58:09;;;;;;;37.42;23.17;;;5.60;85.70;;;;;;5121565;27;20209;-71
2022/11/27 12:00:45;;;;;;;47.15;25.13;;;5.70;85.80;;;;;;5122994;27;20201;-71
2022/11/27 12:03:43;;;;;;;48.40;26.80;;;5.70;85.70;;;;;;5121829;27;20214;-70
2022/11/27 12:06:35;;;;;;;39.85;22.65;;;5.80;85.70;;;;;;5131029;27;20193;-70
2022/11/27 12:09:19;;;;;;;49.35;26.10;;;5.80;85.80;;;;;;5145015;27;20582;-70
2022/11/27 12:11:56;;;;;;;41.88;21.63;;;5.90;85.80;;;;;;5120264;27;20226;-70
2022/11/27 12:14:39;;;;;;;46.45;26.55;;;5.90;85.70;;;;;;5122419;27;20210;-71
2022/11/27 12:17:18;;;;;;;53.63;27.33;;;5.90;85.80;;;;;;5113831;27;20209;-69
2022/11/27 12:20:05;;;;;;;39.15;22.08;;;5.90;85.60;;;;;;5119923;27;20198;-70
2022/11/27 12:22:48;;;;;;;55.53;30.27;;;5.90;85.80;;;;;;5130216;27;20228;-70
2022/11/27 12:25:28;;;;;;;47.45;27.98;;;5.90;85.80;;;;;;5118840;27;20202;-70
2022/11/27 12:28:12;;;;;;;76.97;37.30;;;6.00;85.90;;;;;;5117270;27;21016;-71
2022/11/27 12:30:51;;;;;;;42.03;25.23;;;6.00;85.90;;;;;;5117944;27;20233;-71
2022/11/27 12:33:33;;;;;;;45.08;25.63;;;6.00;86.00;;;;;;5121255;27;20932;-70
2022/11/27 12:36:11;;;;;;;41.65;25.02;;;6.00;85.90;;;;;;5122171;27;21872;-70
2022/11/27 12:38:55;;;;;;;46.88;26.90;;;6.10;86.00;;;;;;5120375;27;20236;-71
2022/11/27 12:41:38;;;;;;;42.75;26.20;;;6.10;86.10;;;;;;5120938;27;20333;-70
2022/11/27 12:44:17;;;;;;;42.70;24.70;;;6.10;86.10;;;;;;5120284;27;20202;-69
2022/11/27 12:46:54;;;;;;;39.85;24.55;;;6.10;86.10;;;;;;5118235;27;20210;-70
2022/11/27 12:49:27;;;;;;;45.53;28.13;;;6.20;86.10;;;;;;5123682;27;20430;-70
2022/11/27 12:52:01;;;;;;;43.70;27.60;;;6.20;86.20;;;;;;5118255;27;20234;-70
2022/11/27 12:54:34;;;;;;;42.45;25.52;;;6.20;86.30;;;;;;5121137;27;20209;-70
2022/11/27 12:57:08;;;;;;;43.08;27.88;;;6.30;86.30;;;;;;5120500;27;20992;-70
2022/11/27 12:59:42;;;;;;;39.95;24.08;;;6.30;86.20;;;;;;5122458;27;20209;-70